sensor_id;sensor_type;location;lat;lon;timestamp;P1;durP1;ratioP1;P2;durP2;ratioP2
38853;SDS011;24606;51.992;4.198;2023-07-24T00:03:33;7.05;;;4.20;;
38853;SDS011;24606;51.992;4.198;2023-07-24T00:08:35;5.43;;;3.55;;
38853;SDS011;24606;51.992;4.198;2023-07-24T00:13:38;10.02;;;4.15;;
38853;SDS011;24606;51.992;4.198;2023-07-24T00:18:40;10.77;;;4.72;;
38853;SDS011;24606;51.992;4.198;2023-07-24T00:23:42;12.10;;;4.45;;
38853;SDS011;24606;51.992;4.198;2023-07-24T00:28:45;5.55;;;3.90;;
38853;SDS011;24606;51.992;4.198;2023-07-24T00:33:47;6.50;;;3.72;;
38853;SDS011;24606;51.992;4.198;2023-07-24T00:38:49;6.88;;;3.85;;
38853;SDS011;24606;51.992;4.198;2023-07-24T00:43:52;9.77;;;4.43;;
38853;SDS011;24606;51.992;4.198;2023-07-24T00:48:54;14.00;;;5.25;;
38853;SDS011;24606;51.992;4.198;2023-07-24T00:53:55;8.43;;;4.07;;
38853;SDS011;24606;51.992;4.198;2023-07-24T00:59:00;7.78;;;3.85;;
38853;SDS011;24606;51.992;4.198;2023-07-24T01:04:02;9.48;;;3.95;;
38853;SDS011;24606;51.992;4.198;2023-07-24T01:09:06;11.55;;;3.90;;
38853;SDS011;24606;51.992;4.198;2023-07-24T01:14:12;9.80;;;3.83;;
38853;SDS011;24606;51.992;4.198;2023-07-24T01:19:20;5.97;;;3.40;;
38853;SDS011;24606;51.992;4.198;2023-07-24T01:24:36;12.70;;;3.72;;
38853;SDS011;24606;51.992;4.198;2023-07-24T01:29:48;7.53;;;3.08;;
38853;SDS011;24606;51.992;4.198;2023-07-24T01:34:50;8.98;;;3.70;;
38853;SDS011;24606;51.992;4.198;2023-07-24T01:39:53;6.13;;;3.88;;
38853;SDS011;24606;51.992;4.198;2023-07-24T01:44:58;8.70;;;4.00;;
38853;SDS011;24606;51.992;4.198;2023-07-24T01:50:03;7.10;;;3.20;;
38853;SDS011;24606;51.992;4.198;2023-07-24T01:55:06;14.98;;;3.40;;
38853;SDS011;24606;51.992;4.198;2023-07-24T02:00:11;10.65;;;3.42;;
38853;SDS011;24606;51.992;4.198;2023-07-24T02:05:13;6.85;;;3.13;;
38853;SDS011;24606;51.992;4.198;2023-07-24T02:10:15;11.93;;;3.63;;
38853;SDS011;24606;51.992;4.198;2023-07-24T02:15:18;11.68;;;3.70;;
38853;SDS011;24606;51.992;4.198;2023-07-24T02:20:20;9.07;;;2.85;;
38853;SDS011;24606;51.992;4.198;2023-07-24T02:25:22;8.60;;;3.40;;
38853;SDS011;24606;51.992;4.198;2023-07-24T02:30:25;10.07;;;3.22;;
38853;SDS011;24606;51.992;4.198;2023-07-24T02:35:27;9.07;;;3.03;;
38853;SDS011;24606;51.992;4.198;2023-07-24T02:40:29;8.07;;;3.58;;
38853;SDS011;24606;51.992;4.198;2023-07-24T02:45:34;13.98;;;3.20;;
38853;SDS011;24606;51.992;4.198;2023-07-24T02:50:36;14.75;;;4.68;;
38853;SDS011;24606;51.992;4.198;2023-07-24T02:55:41;17.35;;;4.05;;
38853;SDS011;24606;51.992;4.198;2023-07-24T03:15:29;13.65;;;3.78;;
38853;SDS011;24606;51.992;4.198;2023-07-24T03:20:31;12.15;;;3.90;;
38853;SDS011;24606;51.992;4.198;2023-07-24T03:25:33;8.57;;;2.90;;
38853;SDS011;24606;51.992;4.198;2023-07-24T03:30:37;9.60;;;2.97;;
38853;SDS011;24606;51.992;4.198;2023-07-24T03:35:39;7.57;;;2.85;;
38853;SDS011;24606;51.992;4.198;2023-07-24T03:40:41;10.18;;;3.50;;
38853;SDS011;24606;51.992;4.198;2023-07-24T03:45:44;7.20;;;3.33;;
38853;SDS011;24606;51.992;4.198;2023-07-24T03:50:46;10.25;;;3.40;;
38853;SDS011;24606;51.992;4.198;2023-07-24T03:55:48;6.82;;;2.85;;
38853;SDS011;24606;51.992;4.198;2023-07-24T04:00:51;8.98;;;2.95;;
38853;SDS011;24606;51.992;4.198;2023-07-24T04:05:53;11.13;;;3.55;;
38853;SDS011;24606;51.992;4.198;2023-07-24T04:10:55;15.68;;;3.58;;
38853;SDS011;24606;51.992;4.198;2023-07-24T04:15:58;9.10;;;3.55;;
38853;SDS011;24606;51.992;4.198;2023-07-24T04:21:00;7.13;;;3.30;;
38853;SDS011;24606;51.992;4.198;2023-07-24T04:26:02;8.80;;;2.60;;
38853;SDS011;24606;51.992;4.198;2023-07-24T04:31:05;8.95;;;2.75;;
38853;SDS011;24606;51.992;4.198;2023-07-24T04:36:07;5.30;;;2.80;;
38853;SDS011;24606;51.992;4.198;2023-07-24T04:41:09;6.13;;;2.83;;
38853;SDS011;24606;51.992;4.198;2023-07-24T04:51:14;3.00;;;2.20;;
38853;SDS011;24606;51.992;4.198;2023-07-24T05:01:18;4.93;;;2.70;;
38853;SDS011;24606;51.992;4.198;2023-07-24T05:06:20;10.48;;;3.15;;
38853;SDS011;24606;51.992;4.198;2023-07-24T05:11:23;7.28;;;2.53;;
38853;SDS011;24606;51.992;4.198;2023-07-24T05:16:26;9.15;;;3.08;;
38853;SDS011;24606;51.992;4.198;2023-07-24T05:21:28;8.40;;;3.08;;
38853;SDS011;24606;51.992;4.198;2023-07-24T05:26:30;8.98;;;3.35;;
38853;SDS011;24606;51.992;4.198;2023-07-24T05:31:35;13.20;;;3.95;;
38853;SDS011;24606;51.992;4.198;2023-07-24T05:36:37;7.82;;;2.78;;
38853;SDS011;24606;51.992;4.198;2023-07-24T05:46:42;7.75;;;2.58;;
38853;SDS011;24606;51.992;4.198;2023-07-24T05:51:43;5.80;;;2.58;;
38853;SDS011;24606;51.992;4.198;2023-07-24T06:01:48;8.73;;;2.90;;
38853;SDS011;24606;51.992;4.198;2023-07-24T06:06:50;10.77;;;3.22;;
38853;SDS011;24606;51.992;4.198;2023-07-24T06:16:55;5.43;;;2.43;;
38853;SDS011;24606;51.992;4.198;2023-07-24T06:21:57;7.95;;;2.80;;
38853;SDS011;24606;51.992;4.198;2023-07-24T06:26:59;6.80;;;2.88;;
38853;SDS011;24606;51.992;4.198;2023-07-24T06:32:02;4.82;;;2.30;;
38853;SDS011;24606;51.992;4.198;2023-07-24T06:37:05;8.98;;;3.13;;
38853;SDS011;24606;51.992;4.198;2023-07-24T06:42:06;3.10;;;1.80;;
38853;SDS011;24606;51.992;4.198;2023-07-24T06:52:11;6.18;;;2.42;;
38853;SDS011;24606;51.992;4.198;2023-07-24T06:57:13;5.22;;;2.05;;
38853;SDS011;24606;51.992;4.198;2023-07-24T07:02:16;7.93;;;2.53;;
38853;SDS011;24606;51.992;4.198;2023-07-24T07:07:18;5.60;;;2.22;;
38853;SDS011;24606;51.992;4.198;2023-07-24T07:12:20;7.22;;;2.75;;
38853;SDS011;24606;51.992;4.198;2023-07-24T07:17:24;9.20;;;2.30;;
38853;SDS011;24606;51.992;4.198;2023-07-24T07:22:25;7.55;;;2.70;;
38853;SDS011;24606;51.992;4.198;2023-07-24T07:27:27;5.47;;;2.80;;
38853;SDS011;24606;51.992;4.198;2023-07-24T07:37:33;9.90;;;3.80;;
38853;SDS011;24606;51.992;4.198;2023-07-24T07:42:35;7.47;;;2.45;;
38853;SDS011;24606;51.992;4.198;2023-07-24T07:47:38;8.27;;;3.03;;
38853;SDS011;24606;51.992;4.198;2023-07-24T07:52:40;6.68;;;2.80;;
38853;SDS011;24606;51.992;4.198;2023-07-24T07:57:42;9.30;;;2.95;;
38853;SDS011;24606;51.992;4.198;2023-07-24T08:02:45;7.65;;;2.95;;
38853;SDS011;24606;51.992;4.198;2023-07-24T08:07:47;4.95;;;2.53;;
38853;SDS011;24606;51.992;4.198;2023-07-24T08:12:49;12.30;;;2.42;;
38853;SDS011;24606;51.992;4.198;2023-07-24T08:17:52;10.40;;;2.60;;
38853;SDS011;24606;51.992;4.198;2023-07-24T08:22:54;7.10;;;3.28;;
38853;SDS011;24606;51.992;4.198;2023-07-24T08:27:56;7.60;;;2.67;;
38853;SDS011;24606;51.992;4.198;2023-07-24T08:32:59;2.88;;;2.17;;
38853;SDS011;24606;51.992;4.198;2023-07-24T08:38:01;7.00;;;2.40;;
38853;SDS011;24606;51.992;4.198;2023-07-24T08:43:03;5.40;;;2.97;;
38853;SDS011;24606;51.992;4.198;2023-07-24T08:48:07;13.00;;;2.83;;
38853;SDS011;24606;51.992;4.198;2023-07-24T08:53:11;6.32;;;2.78;;
38853;SDS011;24606;51.992;4.198;2023-07-24T08:58:14;5.57;;;2.28;;
38853;SDS011;24606;51.992;4.198;2023-07-24T09:03:18;7.72;;;3.03;;
38853;SDS011;24606;51.992;4.198;2023-07-24T09:08:28;2.63;;;2.17;;
38853;SDS011;24606;51.992;4.198;2023-07-24T09:13:30;9.50;;;2.50;;
38853;SDS011;24606;51.992;4.198;2023-07-24T09:18:39;4.68;;;2.53;;
38853;SDS011;24606;51.992;4.198;2023-07-24T09:23:42;10.82;;;3.08;;
38853;SDS011;24606;51.992;4.198;2023-07-24T09:28:50;5.85;;;2.70;;
38853;SDS011;24606;51.992;4.198;2023-07-24T09:33:54;5.25;;;2.45;;
38853;SDS011;24606;51.992;4.198;2023-07-24T09:38:59;12.93;;;3.00;;
38853;SDS011;24606;51.992;4.198;2023-07-24T09:44:03;7.93;;;2.95;;
38853;SDS011;24606;51.992;4.198;2023-07-24T09:49:06;8.27;;;2.72;;
38853;SDS011;24606;51.992;4.198;2023-07-24T09:54:09;8.70;;;2.97;;
38853;SDS011;24606;51.992;4.198;2023-07-24T09:59:16;5.43;;;2.97;;
38853;SDS011;24606;51.992;4.198;2023-07-24T10:04:21;6.78;;;2.30;;
38853;SDS011;24606;51.992;4.198;2023-07-24T10:09:24;5.22;;;3.35;;
38853;SDS011;24606;51.992;4.198;2023-07-24T10:14:26;4.65;;;2.05;;
38853;SDS011;24606;51.992;4.198;2023-07-24T10:19:36;7.03;;;2.83;;
38853;SDS011;24606;51.992;4.198;2023-07-24T10:24:40;4.13;;;2.53;;
38853;SDS011;24606;51.992;4.198;2023-07-24T10:29:42;6.18;;;2.42;;
38853;SDS011;24606;51.992;4.198;2023-07-24T10:34:56;5.00;;;2.63;;
38853;SDS011;24606;51.992;4.198;2023-07-24T10:40:00;5.43;;;2.80;;
38853;SDS011;24606;51.992;4.198;2023-07-24T10:45:03;6.57;;;3.17;;
38853;SDS011;24606;51.992;4.198;2023-07-24T10:50:08;5.40;;;2.92;;
38853;SDS011;24606;51.992;4.198;2023-07-24T10:55:10;5.28;;;3.25;;
38853;SDS011;24606;51.992;4.198;2023-07-24T11:00:12;3.90;;;2.20;;
38853;SDS011;24606;51.992;4.198;2023-07-24T11:05:16;5.75;;;2.00;;
38853;SDS011;24606;51.992;4.198;2023-07-24T11:10:20;6.72;;;2.42;;
38853;SDS011;24606;51.992;4.198;2023-07-24T11:15:23;2.30;;;1.98;;
38853;SDS011;24606;51.992;4.198;2023-07-24T11:20:28;3.67;;;1.88;;
38853;SDS011;24606;51.992;4.198;2023-07-24T11:25:30;3.47;;;1.50;;
38853;SDS011;24606;51.992;4.198;2023-07-24T11:30:33;4.30;;;1.45;;
38853;SDS011;24606;51.992;4.198;2023-07-24T11:35:37;4.50;;;1.30;;
38853;SDS011;24606;51.992;4.198;2023-07-24T11:40:41;1.10;;;1.00;;
38853;SDS011;24606;51.992;4.198;2023-07-24T11:45:45;2.95;;;1.40;;
38853;SDS011;24606;51.992;4.198;2023-07-24T11:50:50;1.45;;;1.05;;
38853;SDS011;24606;51.992;4.198;2023-07-24T11:55:55;3.78;;;1.02;;
38853;SDS011;24606;51.992;4.198;2023-07-24T12:00:57;1.85;;;1.20;;
38853;SDS011;24606;51.992;4.198;2023-07-24T12:06:00;1.38;;;0.93;;
38853;SDS011;24606;51.992;4.198;2023-07-24T12:11:04;3.35;;;0.95;;
38853;SDS011;24606;51.992;4.198;2023-07-24T12:16:16;2.92;;;0.90;;
38853;SDS011;24606;51.992;4.198;2023-07-24T12:21:19;2.75;;;0.90;;
38853;SDS011;24606;51.992;4.198;2023-07-24T12:26:21;4.25;;;1.00;;
38853;SDS011;24606;51.992;4.198;2023-07-24T12:31:25;1.70;;;0.82;;
38853;SDS011;24606;51.992;4.198;2023-07-24T12:41:30;4.38;;;1.00;;
38853;SDS011;24606;51.992;4.198;2023-07-24T12:51:35;4.67;;;0.80;;
38853;SDS011;24606;51.992;4.198;2023-07-24T12:56:37;2.42;;;1.00;;
38853;SDS011;24606;51.992;4.198;2023-07-24T13:01:39;4.85;;;1.38;;
38853;SDS011;24606;51.992;4.198;2023-07-24T13:06:42;1.92;;;0.55;;
38853;SDS011;24606;51.992;4.198;2023-07-24T13:11:44;5.00;;;0.90;;
38853;SDS011;24606;51.992;4.198;2023-07-24T13:16:48;7.65;;;0.88;;
38853;SDS011;24606;51.992;4.198;2023-07-24T13:21:53;4.00;;;0.85;;
38853;SDS011;24606;51.992;4.198;2023-07-24T13:26:55;3.17;;;0.73;;
38853;SDS011;24606;51.992;4.198;2023-07-24T13:37:00;2.43;;;0.63;;
38853;SDS011;24606;51.992;4.198;2023-07-24T13:42:02;6.03;;;0.85;;
38853;SDS011;24606;51.992;4.198;2023-07-24T13:47:05;5.35;;;1.10;;
38853;SDS011;24606;51.992;4.198;2023-07-24T13:52:08;6.50;;;1.20;;
38853;SDS011;24606;51.992;4.198;2023-07-24T13:57:10;5.15;;;1.33;;
38853;SDS011;24606;51.992;4.198;2023-07-24T14:02:11;2.67;;;0.90;;
38853;SDS011;24606;51.992;4.198;2023-07-24T14:12:16;7.00;;;1.10;;
38853;SDS011;24606;51.992;4.198;2023-07-24T14:17:18;6.18;;;0.88;;
38853;SDS011;24606;51.992;4.198;2023-07-24T14:22:21;2.63;;;0.60;;
38853;SDS011;24606;51.992;4.198;2023-07-24T14:27:23;3.63;;;0.73;;
38853;SDS011;24606;51.992;4.198;2023-07-24T14:37:28;1.08;;;0.38;;
38853;SDS011;24606;51.992;4.198;2023-07-24T14:42:31;3.30;;;0.52;;
38853;SDS011;24606;51.992;4.198;2023-07-24T14:47:34;2.63;;;0.50;;
38853;SDS011;24606;51.992;4.198;2023-07-24T14:57:39;2.05;;;0.47;;
38853;SDS011;24606;51.992;4.198;2023-07-24T15:07:44;2.17;;;0.38;;
38853;SDS011;24606;51.992;4.198;2023-07-24T15:12:46;3.63;;;0.73;;
38853;SDS011;24606;51.992;4.198;2023-07-24T15:17:48;0.82;;;0.50;;
38853;SDS011;24606;51.992;4.198;2023-07-24T15:22:51;2.10;;;0.70;;
38853;SDS011;24606;51.992;4.198;2023-07-24T15:27:53;2.10;;;0.38;;
38853;SDS011;24606;51.992;4.198;2023-07-24T15:37:58;5.00;;;0.80;;
38853;SDS011;24606;51.992;4.198;2023-07-24T15:43:01;5.40;;;0.93;;
38853;SDS011;24606;51.992;4.198;2023-07-24T15:53:06;2.22;;;0.90;;
38853;SDS011;24606;51.992;4.198;2023-07-24T15:58:08;2.65;;;0.90;;
38853;SDS011;24606;51.992;4.198;2023-07-24T16:03:10;2.05;;;0.63;;
38853;SDS011;24606;51.992;4.198;2023-07-24T16:13:15;3.70;;;1.08;;
38853;SDS011;24606;51.992;4.198;2023-07-24T16:23:23;5.47;;;1.25;;
38853;SDS011;24606;51.992;4.198;2023-07-24T16:28:25;3.78;;;1.00;;
38853;SDS011;24606;51.992;4.198;2023-07-24T16:33:27;5.50;;;1.30;;
38853;SDS011;24606;51.992;4.198;2023-07-24T16:38:31;8.60;;;1.60;;
38853;SDS011;24606;51.992;4.198;2023-07-24T16:43:33;3.00;;;0.90;;
38853;SDS011;24606;51.992;4.198;2023-07-24T16:48:35;6.53;;;1.02;;
38853;SDS011;24606;51.992;4.198;2023-07-24T16:53:38;4.35;;;0.90;;
38853;SDS011;24606;51.992;4.198;2023-07-24T16:58:40;7.50;;;0.90;;
38853;SDS011;24606;51.992;4.198;2023-07-24T17:03:42;3.13;;;0.90;;
38853;SDS011;24606;51.992;4.198;2023-07-24T17:08:45;4.40;;;0.77;;
38853;SDS011;24606;51.992;4.198;2023-07-24T17:13:48;2.13;;;0.70;;
38853;SDS011;24606;51.992;4.198;2023-07-24T17:18:49;3.67;;;1.08;;
38853;SDS011;24606;51.992;4.198;2023-07-24T17:23:55;2.63;;;0.82;;
38853;SDS011;24606;51.992;4.198;2023-07-24T17:28:57;3.53;;;0.90;;
38853;SDS011;24606;51.992;4.198;2023-07-24T17:34:02;2.22;;;0.70;;
38853;SDS011;24606;51.992;4.198;2023-07-24T17:39:05;5.40;;;0.82;;
38853;SDS011;24606;51.992;4.198;2023-07-24T17:44:08;8.95;;;1.23;;
38853;SDS011;24606;51.992;4.198;2023-07-24T17:49:12;4.82;;;0.90;;
38853;SDS011;24606;51.992;4.198;2023-07-24T17:59:17;4.07;;;0.77;;
38853;SDS011;24606;51.992;4.198;2023-07-24T18:04:19;4.38;;;0.70;;
38853;SDS011;24606;51.992;4.198;2023-07-24T18:09:22;2.83;;;0.55;;
38853;SDS011;24606;51.992;4.198;2023-07-24T18:14:24;2.28;;;0.90;;
38853;SDS011;24606;51.992;4.198;2023-07-24T18:19:26;4.10;;;0.90;;
38853;SDS011;24606;51.992;4.198;2023-07-24T18:29:31;3.20;;;0.60;;
38853;SDS011;24606;51.992;4.198;2023-07-24T18:34:33;2.65;;;0.75;;
38853;SDS011;24606;51.992;4.198;2023-07-24T18:39:37;2.03;;;0.57;;
38853;SDS011;24606;51.992;4.198;2023-07-24T18:44:39;4.65;;;0.93;;
38853;SDS011;24606;51.992;4.198;2023-07-24T18:49:41;1.83;;;0.70;;
38853;SDS011;24606;51.992;4.198;2023-07-24T18:54:45;4.38;;;0.88;;
38853;SDS011;24606;51.992;4.198;2023-07-24T18:59:47;6.00;;;0.88;;
38853;SDS011;24606;51.992;4.198;2023-07-24T19:04:49;3.25;;;0.95;;
38853;SDS011;24606;51.992;4.198;2023-07-24T19:09:53;4.80;;;1.02;;
38853;SDS011;24606;51.992;4.198;2023-07-24T19:14:55;7.28;;;2.20;;
38853;SDS011;24606;51.992;4.198;2023-07-24T19:19:57;3.63;;;1.00;;
38853;SDS011;24606;51.992;4.198;2023-07-24T19:30:04;7.65;;;0.80;;
38853;SDS011;24606;51.992;4.198;2023-07-24T19:35:08;3.13;;;1.00;;
38853;SDS011;24606;51.992;4.198;2023-07-24T19:40:11;4.07;;;0.85;;
38853;SDS011;24606;51.992;4.198;2023-07-24T19:45:13;5.57;;;1.42;;
38853;SDS011;24606;51.992;4.198;2023-07-24T19:50:15;4.22;;;0.93;;
38853;SDS011;24606;51.992;4.198;2023-07-24T19:55:19;3.17;;;0.75;;
38853;SDS011;24606;51.992;4.198;2023-07-24T20:00:21;5.30;;;1.10;;
38853;SDS011;24606;51.992;4.198;2023-07-24T20:05:23;2.28;;;0.70;;
38853;SDS011;24606;51.992;4.198;2023-07-24T20:10:27;3.70;;;1.17;;
38853;SDS011;24606;51.992;4.198;2023-07-24T20:15:30;3.53;;;0.90;;
38853;SDS011;24606;51.992;4.198;2023-07-24T20:20:31;5.88;;;1.38;;
38853;SDS011;24606;51.992;4.198;2023-07-24T20:25:37;5.38;;;0.88;;
38853;SDS011;24606;51.992;4.198;2023-07-24T20:30:39;3.08;;;0.80;;
38853;SDS011;24606;51.992;4.198;2023-07-24T20:35:41;3.05;;;0.75;;
38853;SDS011;24606;51.992;4.198;2023-07-24T20:40:46;5.40;;;1.15;;
38853;SDS011;24606;51.992;4.198;2023-07-24T20:45:48;3.58;;;0.88;;
38853;SDS011;24606;51.992;4.198;2023-07-24T20:50:51;4.28;;;0.98;;
38853;SDS011;24606;51.992;4.198;2023-07-24T20:55:55;6.03;;;0.75;;
38853;SDS011;24606;51.992;4.198;2023-07-24T21:00:57;3.58;;;0.80;;
38853;SDS011;24606;51.992;4.198;2023-07-24T21:05:58;3.53;;;0.77;;
38853;SDS011;24606;51.992;4.198;2023-07-24T21:11:02;3.80;;;1.10;;
38853;SDS011;24606;51.992;4.198;2023-07-24T21:16:04;6.05;;;0.95;;
38853;SDS011;24606;51.992;4.198;2023-07-24T21:21:05;3.05;;;0.70;;
38853;SDS011;24606;51.992;4.198;2023-07-24T21:26:11;1.15;;;0.68;;
38853;SDS011;24606;51.992;4.198;2023-07-24T21:31:13;2.22;;;0.73;;
38853;SDS011;24606;51.992;4.198;2023-07-24T21:36:15;2.22;;;0.50;;
38853;SDS011;24606;51.992;4.198;2023-07-24T21:41:18;5.15;;;0.70;;
38853;SDS011;24606;51.992;4.198;2023-07-24T21:46:20;3.35;;;0.80;;
38853;SDS011;24606;51.992;4.198;2023-07-24T21:51:23;2.05;;;0.68;;
38853;SDS011;24606;51.992;4.198;2023-07-24T21:56:26;4.85;;;0.90;;
38853;SDS011;24606;51.992;4.198;2023-07-24T22:01:29;1.42;;;0.60;;
38853;SDS011;24606;51.992;4.198;2023-07-24T22:06:32;1.80;;;0.55;;
38853;SDS011;24606;51.992;4.198;2023-07-24T22:11:35;1.08;;;0.45;;
38853;SDS011;24606;51.992;4.198;2023-07-24T22:16:37;2.45;;;0.60;;
38853;SDS011;24606;51.992;4.198;2023-07-24T22:21:39;1.90;;;0.50;;
38853;SDS011;24606;51.992;4.198;2023-07-24T22:26:42;1.80;;;0.63;;
38853;SDS011;24606;51.992;4.198;2023-07-24T22:31:44;2.10;;;0.80;;
38853;SDS011;24606;51.992;4.198;2023-07-24T22:36:45;2.00;;;0.70;;
38853;SDS011;24606;51.992;4.198;2023-07-24T22:41:49;2.78;;;0.60;;
38853;SDS011;24606;51.992;4.198;2023-07-24T22:46:50;1.27;;;0.57;;
38853;SDS011;24606;51.992;4.198;2023-07-24T22:51:52;3.05;;;0.75;;
38853;SDS011;24606;51.992;4.198;2023-07-24T22:56:56;2.53;;;0.85;;
38853;SDS011;24606;51.992;4.198;2023-07-24T23:01:57;3.13;;;0.88;;
38853;SDS011;24606;51.992;4.198;2023-07-24T23:06:59;3.38;;;0.70;;
38853;SDS011;24606;51.992;4.198;2023-07-24T23:12:03;2.75;;;0.80;;
38853;SDS011;24606;51.992;4.198;2023-07-24T23:17:05;3.53;;;1.13;;
38853;SDS011;24606;51.992;4.198;2023-07-24T23:22:07;2.78;;;0.82;;
38853;SDS011;24606;51.992;4.198;2023-07-24T23:27:10;1.67;;;0.50;;
38853;SDS011;24606;51.992;4.198;2023-07-24T23:32:12;2.45;;;0.73;;
38853;SDS011;24606;51.992;4.198;2023-07-24T23:37:14;2.47;;;0.70;;
38853;SDS011;24606;51.992;4.198;2023-07-24T23:47:18;2.28;;;0.52;;
38853;SDS011;24606;51.992;4.198;2023-07-24T23:57:23;3.10;;;0.75;;
